<?xml version="1.0" encoding="UTF-8" standalone="no" ?>
<gpx xmlns="http://www.topografix.com/GPX/1/1" xmlns:xsi="http://www.w3.org/2001/XMLSchema-instance" xsi:schemaLocation="http://www.topografix.com/GPX/1/1 http://www.topografix.com/GPX/1/1/gpx.xsd" version="1.1" creator="VisuGPX - https://www.visugpx.com">
  <metadata>
    <name>Beuil - Plateau St Jean - 20110205</name>
    <desc><![CDATA[Ballade d\\\'initiation avec construction d\\\'igloo à la chapelle]]></desc>
  </metadata>
  <trk>
    <name><![CDATA[5 févr. 11 @ 10-14-40]]></name>
    <trkseg>
      <trkpt lat="44.08746" lon="6.96351">
        <ele>1609</ele>
        <time>2011-02-05T09:14:21Z</time>
      </trkpt>
      <trkpt lat="44.0874" lon="6.96354">
        <ele>1610</ele>
        <time>2011-02-05T09:14:23Z</time>
      </trkpt>
      <trkpt lat="44.08735" lon="6.96355">
        <ele>1603</ele>
        <time>2011-02-05T09:14:25Z</time>
      </trkpt>
      <trkpt lat="44.08728" lon="6.96354">
        <ele>1600</ele>
        <time>2011-02-05T09:14:52Z</time>
      </trkpt>
      <trkpt lat="44.08732" lon="6.96351">
        <ele>1583</ele>
        <time>2011-02-05T09:15:18Z</time>
      </trkpt>
      <trkpt lat="44.08736" lon="6.96349">
        <ele>1583</ele>
        <time>2011-02-05T09:15:28Z</time>
      </trkpt>
      <trkpt lat="44.0874" lon="6.96353">
        <ele>1575</ele>
        <time>2011-02-05T09:15:45Z</time>
      </trkpt>
      <trkpt lat="44.08744" lon="6.96356">
        <ele>1577</ele>
        <time>2011-02-05T09:15:51Z</time>
      </trkpt>
      <trkpt lat="44.08743" lon="6.96364">
        <ele>1592</ele>
        <time>2011-02-05T09:19:04Z</time>
      </trkpt>
      <trkpt lat="44.08744" lon="6.96365">
        <ele>1592</ele>
        <time>2011-02-05T09:19:21Z</time>
      </trkpt>
      <trkpt lat="44.08741" lon="6.96371">
        <ele>1593</ele>
        <time>2011-02-05T09:19:39Z</time>
      </trkpt>
      <trkpt lat="44.0874" lon="6.96378">
        <ele>1593</ele>
        <time>2011-02-05T09:19:45Z</time>
      </trkpt>
      <trkpt lat="44.08739" lon="6.96384">
        <ele>1593</ele>
        <time>2011-02-05T09:19:49Z</time>
      </trkpt>
      <trkpt lat="44.08739" lon="6.96392">
        <ele>1593</ele>
        <time>2011-02-05T09:19:54Z</time>
      </trkpt>
      <trkpt lat="44.08738" lon="6.96399">
        <ele>1593</ele>
        <time>2011-02-05T09:19:59Z</time>
      </trkpt>
      <trkpt lat="44.08737" lon="6.96407">
        <ele>1593</ele>
        <time>2011-02-05T09:20:04Z</time>
      </trkpt>
      <trkpt lat="44.08735" lon="6.96415">
        <ele>1593</ele>
        <time>2011-02-05T09:20:08Z</time>
      </trkpt>
      <trkpt lat="44.08734" lon="6.96422">
        <ele>1594</ele>
        <time>2011-02-05T09:20:13Z</time>
      </trkpt>
      <trkpt lat="44.08731" lon="6.96427">
        <ele>1595</ele>
        <time>2011-02-05T09:20:17Z</time>
      </trkpt>
      <trkpt lat="44.0873" lon="6.96434">
        <ele>1595</ele>
        <time>2011-02-05T09:20:24Z</time>
      </trkpt>
      <trkpt lat="44.08726" lon="6.96437">
        <ele>1595</ele>
        <time>2011-02-05T09:20:30Z</time>
      </trkpt>
      <trkpt lat="44.08722" lon="6.9644">
        <ele>1594</ele>
        <time>2011-02-05T09:20:35Z</time>
      </trkpt>
      <trkpt lat="44.08718" lon="6.96444">
        <ele>1594</ele>
        <time>2011-02-05T09:20:50Z</time>
      </trkpt>
      <trkpt lat="44.08713" lon="6.96446">
        <ele>1594</ele>
        <time>2011-02-05T09:20:59Z</time>
      </trkpt>
      <trkpt lat="44.08709" lon="6.96444">
        <ele>1590</ele>
        <time>2011-02-05T09:21:05Z</time>
      </trkpt>
      <trkpt lat="44.08705" lon="6.96441">
        <ele>1587</ele>
        <time>2011-02-05T09:21:10Z</time>
      </trkpt>
      <trkpt lat="44.087" lon="6.96438">
        <ele>1586</ele>
        <time>2011-02-05T09:21:16Z</time>
      </trkpt>
      <trkpt lat="44.08695" lon="6.9644">
        <ele>1586</ele>
        <time>2011-02-05T09:21:23Z</time>
      </trkpt>
      <trkpt lat="44.0869" lon="6.96441">
        <ele>1585</ele>
        <time>2011-02-05T09:21:29Z</time>
      </trkpt>
      <trkpt lat="44.08685" lon="6.96438">
        <ele>1584</ele>
        <time>2011-02-05T09:21:34Z</time>
      </trkpt>
      <trkpt lat="44.08681" lon="6.96433">
        <ele>1583</ele>
        <time>2011-02-05T09:21:39Z</time>
      </trkpt>
      <trkpt lat="44.08677" lon="6.96429">
        <ele>1583</ele>
        <time>2011-02-05T09:21:44Z</time>
      </trkpt>
      <trkpt lat="44.08674" lon="6.96423">
        <ele>1583</ele>
        <time>2011-02-05T09:21:49Z</time>
      </trkpt>
      <trkpt lat="44.0867" lon="6.96418">
        <ele>1582</ele>
        <time>2011-02-05T09:21:54Z</time>
      </trkpt>
      <trkpt lat="44.08667" lon="6.96414">
        <ele>1581</ele>
        <time>2011-02-05T09:21:59Z</time>
      </trkpt>
      <trkpt lat="44.08663" lon="6.96409">
        <ele>1581</ele>
        <time>2011-02-05T09:22:04Z</time>
      </trkpt>
      <trkpt lat="44.0866" lon="6.96404">
        <ele>1581</ele>
        <time>2011-02-05T09:22:09Z</time>
      </trkpt>
      <trkpt lat="44.08656" lon="6.96399">
        <ele>1581</ele>
        <time>2011-02-05T09:22:14Z</time>
      </trkpt>
      <trkpt lat="44.08652" lon="6.96394">
        <ele>1581</ele>
        <time>2011-02-05T09:22:19Z</time>
      </trkpt>
      <trkpt lat="44.08649" lon="6.9639">
        <ele>1580</ele>
        <time>2011-02-05T09:22:23Z</time>
      </trkpt>
      <trkpt lat="44.08645" lon="6.96386">
        <ele>1580</ele>
        <time>2011-02-05T09:22:29Z</time>
      </trkpt>
      <trkpt lat="44.08641" lon="6.96382">
        <ele>1579</ele>
        <time>2011-02-05T09:22:34Z</time>
      </trkpt>
      <trkpt lat="44.08636" lon="6.96379">
        <ele>1579</ele>
        <time>2011-02-05T09:22:40Z</time>
      </trkpt>
      <trkpt lat="44.08633" lon="6.96376">
        <ele>1580</ele>
        <time>2011-02-05T09:22:45Z</time>
      </trkpt>
      <trkpt lat="44.08628" lon="6.96372">
        <ele>1581</ele>
        <time>2011-02-05T09:22:51Z</time>
      </trkpt>
      <trkpt lat="44.08625" lon="6.96367">
        <ele>1581</ele>
        <time>2011-02-05T09:22:58Z</time>
      </trkpt>
      <trkpt lat="44.08621" lon="6.96364">
        <ele>1582</ele>
        <time>2011-02-05T09:23:03Z</time>
      </trkpt>
      <trkpt lat="44.08616" lon="6.96364">
        <ele>1581</ele>
        <time>2011-02-05T09:23:32Z</time>
      </trkpt>
      <trkpt lat="44.08611" lon="6.96364">
        <ele>1582</ele>
        <time>2011-02-05T09:23:48Z</time>
      </trkpt>
      <trkpt lat="44.08606" lon="6.96362">
        <ele>1583</ele>
        <time>2011-02-05T09:23:53Z</time>
      </trkpt>
      <trkpt lat="44.08602" lon="6.9636">
        <ele>1583</ele>
        <time>2011-02-05T09:23:59Z</time>
      </trkpt>
      <trkpt lat="44.08597" lon="6.96357">
        <ele>1583</ele>
        <time>2011-02-05T09:24:05Z</time>
      </trkpt>
      <trkpt lat="44.08592" lon="6.96354">
        <ele>1584</ele>
        <time>2011-02-05T09:24:11Z</time>
      </trkpt>
      <trkpt lat="44.08588" lon="6.9635">
        <ele>1586</ele>
        <time>2011-02-05T09:24:18Z</time>
      </trkpt>
      <trkpt lat="44.08584" lon="6.96346">
        <ele>1588</ele>
        <time>2011-02-05T09:24:25Z</time>
      </trkpt>
      <trkpt lat="44.0858" lon="6.96342">
        <ele>1589</ele>
        <time>2011-02-05T09:24:33Z</time>
      </trkpt>
      <trkpt lat="44.08576" lon="6.96339">
        <ele>1590</ele>
        <time>2011-02-05T09:24:39Z</time>
      </trkpt>
      <trkpt lat="44.08572" lon="6.96336">
        <ele>1591</ele>
        <time>2011-02-05T09:24:45Z</time>
      </trkpt>
      <trkpt lat="44.08567" lon="6.96334">
        <ele>1592</ele>
        <time>2011-02-05T09:24:52Z</time>
      </trkpt>
      <trkpt lat="44.08562" lon="6.96332">
        <ele>1593</ele>
        <time>2011-02-05T09:24:56Z</time>
      </trkpt>
      <trkpt lat="44.08557" lon="6.96328">
        <ele>1594</ele>
        <time>2011-02-05T09:25:00Z</time>
      </trkpt>
      <trkpt lat="44.08554" lon="6.96324">
        <ele>1595</ele>
        <time>2011-02-05T09:25:09Z</time>
      </trkpt>
      <trkpt lat="44.0855" lon="6.96318">
        <ele>1596</ele>
        <time>2011-02-05T09:25:17Z</time>
      </trkpt>
      <trkpt lat="44.08547" lon="6.96314">
        <ele>1597</ele>
        <time>2011-02-05T09:25:25Z</time>
      </trkpt>
      <trkpt lat="44.08542" lon="6.9631">
        <ele>1599</ele>
        <time>2011-02-05T09:25:32Z</time>
      </trkpt>
      <trkpt lat="44.08538" lon="6.96307">
        <ele>1600</ele>
        <time>2011-02-05T09:25:39Z</time>
      </trkpt>
      <trkpt lat="44.08533" lon="6.96303">
        <ele>1601</ele>
        <time>2011-02-05T09:25:46Z</time>
      </trkpt>
      <trkpt lat="44.08531" lon="6.96297">
        <ele>1602</ele>
        <time>2011-02-05T09:25:53Z</time>
      </trkpt>
      <trkpt lat="44.08528" lon="6.96291">
        <ele>1603</ele>
        <time>2011-02-05T09:26:01Z</time>
      </trkpt>
      <trkpt lat="44.08526" lon="6.96285">
        <ele>1605</ele>
        <time>2011-02-05T09:26:07Z</time>
      </trkpt>
      <trkpt lat="44.08523" lon="6.96279">
        <ele>1606</ele>
        <time>2011-02-05T09:26:15Z</time>
      </trkpt>
      <trkpt lat="44.0852" lon="6.96275">
        <ele>1606</ele>
        <time>2011-02-05T09:26:23Z</time>
      </trkpt>
      <trkpt lat="44.08515" lon="6.9627">
        <ele>1607</ele>
        <time>2011-02-05T09:26:31Z</time>
      </trkpt>
      <trkpt lat="44.08512" lon="6.96266">
        <ele>1607</ele>
        <time>2011-02-05T09:26:38Z</time>
      </trkpt>
      <trkpt lat="44.08507" lon="6.96264">
        <ele>1609</ele>
        <time>2011-02-05T09:26:45Z</time>
      </trkpt>
      <trkpt lat="44.08503" lon="6.96262">
        <ele>1609</ele>
        <time>2011-02-05T09:26:52Z</time>
      </trkpt>
      <trkpt lat="44.08498" lon="6.96261">
        <ele>1611</ele>
        <time>2011-02-05T09:27:00Z</time>
      </trkpt>
      <trkpt lat="44.08493" lon="6.96257">
        <ele>1612</ele>
        <time>2011-02-05T09:27:07Z</time>
      </trkpt>
      <trkpt lat="44.08489" lon="6.96254">
        <ele>1614</ele>
        <time>2011-02-05T09:27:13Z</time>
      </trkpt>
      <trkpt lat="44.08484" lon="6.96251">
        <ele>1614</ele>
        <time>2011-02-05T09:27:20Z</time>
      </trkpt>
      <trkpt lat="44.0848" lon="6.96248">
        <ele>1615</ele>
        <time>2011-02-05T09:27:27Z</time>
      </trkpt>
      <trkpt lat="44.08476" lon="6.96244">
        <ele>1615</ele>
        <time>2011-02-05T09:27:33Z</time>
      </trkpt>
      <trkpt lat="44.08471" lon="6.96242">
        <ele>1616</ele>
        <time>2011-02-05T09:27:43Z</time>
      </trkpt>
      <trkpt lat="44.08469" lon="6.96246">
        <ele>1617</ele>
        <time>2011-02-05T09:28:27Z</time>
      </trkpt>
      <trkpt lat="44.08466" lon="6.9625">
        <ele>1614</ele>
        <time>2011-02-05T09:32:24Z</time>
      </trkpt>
      <trkpt lat="44.08468" lon="6.96257">
        <ele>1616</ele>
        <time>2011-02-05T09:32:38Z</time>
      </trkpt>
      <trkpt lat="44.08468" lon="6.96264">
        <ele>1616</ele>
        <time>2011-02-05T09:32:45Z</time>
      </trkpt>
      <trkpt lat="44.08471" lon="6.96271">
        <ele>1617</ele>
        <time>2011-02-05T09:32:55Z</time>
      </trkpt>
      <trkpt lat="44.08473" lon="6.96276">
        <ele>1617</ele>
        <time>2011-02-05T09:33:01Z</time>
      </trkpt>
      <trkpt lat="44.08474" lon="6.96283">
        <ele>1620</ele>
        <time>2011-02-05T09:33:12Z</time>
      </trkpt>
      <trkpt lat="44.08474" lon="6.9629">
        <ele>1620</ele>
        <time>2011-02-05T09:33:17Z</time>
      </trkpt>
      <trkpt lat="44.08472" lon="6.96296">
        <ele>1621</ele>
        <time>2011-02-05T09:33:24Z</time>
      </trkpt>
      <trkpt lat="44.0847" lon="6.96302">
        <ele>1622</ele>
        <time>2011-02-05T09:33:30Z</time>
      </trkpt>
      <trkpt lat="44.08466" lon="6.96306">
        <ele>1623</ele>
        <time>2011-02-05T09:33:36Z</time>
      </trkpt>
      <trkpt lat="44.08464" lon="6.96311">
        <ele>1624</ele>
        <time>2011-02-05T09:33:44Z</time>
      </trkpt>
      <trkpt lat="44.08461" lon="6.96317">
        <ele>1624</ele>
        <time>2011-02-05T09:33:52Z</time>
      </trkpt>
      <trkpt lat="44.0846" lon="6.96323">
        <ele>1627</ele>
        <time>2011-02-05T09:33:58Z</time>
      </trkpt>
      <trkpt lat="44.08461" lon="6.9633">
        <ele>1627</ele>
        <time>2011-02-05T09:34:02Z</time>
      </trkpt>
      <trkpt lat="44.0846" lon="6.96336">
        <ele>1628</ele>
        <time>2011-02-05T09:34:10Z</time>
      </trkpt>
      <trkpt lat="44.08461" lon="6.96342">
        <ele>1629</ele>
        <time>2011-02-05T09:35:33Z</time>
      </trkpt>
      <trkpt lat="44.08461" lon="6.96342">
        <ele>1629</ele>
        <time>2011-02-05T09:36:05Z</time>
      </trkpt>
      <trkpt lat="44.08424" lon="6.96693">
        <ele>1643</ele>
        <time>2011-02-05T09:53:08Z</time>
      </trkpt>
      <trkpt lat="44.08427" lon="6.96689">
        <ele>1652</ele>
        <time>2011-02-05T09:53:09Z</time>
      </trkpt>
      <trkpt lat="44.08423" lon="6.96694">
        <ele>1659</ele>
        <time>2011-02-05T09:53:11Z</time>
      </trkpt>
      <trkpt lat="44.08427" lon="6.96683">
        <ele>1652</ele>
        <time>2011-02-05T09:53:16Z</time>
      </trkpt>
      <trkpt lat="44.08426" lon="6.96682">
        <ele>1653</ele>
        <time>2011-02-05T09:53:21Z</time>
      </trkpt>
      <trkpt lat="44.08424" lon="6.96688">
        <ele>1657</ele>
        <time>2011-02-05T09:55:03Z</time>
      </trkpt>
      <trkpt lat="44.08422" lon="6.96694">
        <ele>1656</ele>
        <time>2011-02-05T09:55:08Z</time>
      </trkpt>
      <trkpt lat="44.08418" lon="6.96699">
        <ele>1660</ele>
        <time>2011-02-05T09:55:14Z</time>
      </trkpt>
      <trkpt lat="44.08418" lon="6.96706">
        <ele>1661</ele>
        <time>2011-02-05T09:56:07Z</time>
      </trkpt>
      <trkpt lat="44.08415" lon="6.96713">
        <ele>1661</ele>
        <time>2011-02-05T09:56:12Z</time>
      </trkpt>
      <trkpt lat="44.08413" lon="6.96719">
        <ele>1661</ele>
        <time>2011-02-05T09:56:18Z</time>
      </trkpt>
      <trkpt lat="44.08409" lon="6.96723">
        <ele>1664</ele>
        <time>2011-02-05T09:56:23Z</time>
      </trkpt>
      <trkpt lat="44.08407" lon="6.96729">
        <ele>1665</ele>
        <time>2011-02-05T09:56:28Z</time>
      </trkpt>
      <trkpt lat="44.08405" lon="6.96735">
        <ele>1668</ele>
        <time>2011-02-05T09:56:34Z</time>
      </trkpt>
      <trkpt lat="44.08402" lon="6.96741">
        <ele>1669</ele>
        <time>2011-02-05T09:56:42Z</time>
      </trkpt>
      <trkpt lat="44.08402" lon="6.96748">
        <ele>1672</ele>
        <time>2011-02-05T09:56:51Z</time>
      </trkpt>
      <trkpt lat="44.084" lon="6.96754">
        <ele>1673</ele>
        <time>2011-02-05T09:57:00Z</time>
      </trkpt>
      <trkpt lat="44.08398" lon="6.9676">
        <ele>1673</ele>
        <time>2011-02-05T09:57:10Z</time>
      </trkpt>
      <trkpt lat="44.08397" lon="6.96766">
        <ele>1676</ele>
        <time>2011-02-05T09:59:59Z</time>
      </trkpt>
      <trkpt lat="44.08395" lon="6.96773">
        <ele>1675</ele>
        <time>2011-02-05T10:00:05Z</time>
      </trkpt>
      <trkpt lat="44.08393" lon="6.96779">
        <ele>1675</ele>
        <time>2011-02-05T10:00:16Z</time>
      </trkpt>
      <trkpt lat="44.08391" lon="6.96785">
        <ele>1674</ele>
        <time>2011-02-05T10:00:25Z</time>
      </trkpt>
      <trkpt lat="44.08387" lon="6.96789">
        <ele>1673</ele>
        <time>2011-02-05T10:00:33Z</time>
      </trkpt>
      <trkpt lat="44.08386" lon="6.96796">
        <ele>1673</ele>
        <time>2011-02-05T10:00:40Z</time>
      </trkpt>
      <trkpt lat="44.08385" lon="6.96802">
        <ele>1674</ele>
        <time>2011-02-05T10:00:47Z</time>
      </trkpt>
      <trkpt lat="44.08381" lon="6.96806">
        <ele>1676</ele>
        <time>2011-02-05T10:00:56Z</time>
      </trkpt>
      <trkpt lat="44.08381" lon="6.96812">
        <ele>1678</ele>
        <time>2011-02-05T10:01:02Z</time>
      </trkpt>
      <trkpt lat="44.0838" lon="6.96819">
        <ele>1680</ele>
        <time>2011-02-05T10:01:09Z</time>
      </trkpt>
      <trkpt lat="44.08376" lon="6.96822">
        <ele>1679</ele>
        <time>2011-02-05T10:01:21Z</time>
      </trkpt>
      <trkpt lat="44.08371" lon="6.96824">
        <ele>1680</ele>
        <time>2011-02-05T10:01:28Z</time>
      </trkpt>
      <trkpt lat="44.08368" lon="6.96828">
        <ele>1681</ele>
        <time>2011-02-05T10:01:35Z</time>
      </trkpt>
      <trkpt lat="44.08364" lon="6.96833">
        <ele>1684</ele>
        <time>2011-02-05T10:02:07Z</time>
      </trkpt>
      <trkpt lat="44.08366" lon="6.96839">
        <ele>1682</ele>
        <time>2011-02-05T10:02:15Z</time>
      </trkpt>
      <trkpt lat="44.08366" lon="6.96847">
        <ele>1683</ele>
        <time>2011-02-05T10:04:59Z</time>
      </trkpt>
      <trkpt lat="44.08366" lon="6.96853">
        <ele>1685</ele>
        <time>2011-02-05T10:05:09Z</time>
      </trkpt>
      <trkpt lat="44.08367" lon="6.96859">
        <ele>1687</ele>
        <time>2011-02-05T10:05:17Z</time>
      </trkpt>
      <trkpt lat="44.08363" lon="6.96864">
        <ele>1688</ele>
        <time>2011-02-05T10:05:31Z</time>
      </trkpt>
      <trkpt lat="44.08359" lon="6.96867">
        <ele>1690</ele>
        <time>2011-02-05T10:05:38Z</time>
      </trkpt>
      <trkpt lat="44.08355" lon="6.96872">
        <ele>1692</ele>
        <time>2011-02-05T10:05:51Z</time>
      </trkpt>
      <trkpt lat="44.08352" lon="6.96877">
        <ele>1693</ele>
        <time>2011-02-05T10:05:57Z</time>
      </trkpt>
      <trkpt lat="44.08349" lon="6.96883">
        <ele>1693</ele>
        <time>2011-02-05T10:06:08Z</time>
      </trkpt>
      <trkpt lat="44.08346" lon="6.96889">
        <ele>1694</ele>
        <time>2011-02-05T10:07:19Z</time>
      </trkpt>
      <trkpt lat="44.08343" lon="6.96893">
        <ele>1695</ele>
        <time>2011-02-05T10:07:29Z</time>
      </trkpt>
      <trkpt lat="44.08341" lon="6.96899">
        <ele>1696</ele>
        <time>2011-02-05T10:08:48Z</time>
      </trkpt>
      <trkpt lat="44.08339" lon="6.96906">
        <ele>1697</ele>
        <time>2011-02-05T10:08:54Z</time>
      </trkpt>
      <trkpt lat="44.08337" lon="6.96913">
        <ele>1697</ele>
        <time>2011-02-05T10:09:03Z</time>
      </trkpt>
      <trkpt lat="44.08333" lon="6.96917">
        <ele>1698</ele>
        <time>2011-02-05T10:09:12Z</time>
      </trkpt>
      <trkpt lat="44.08332" lon="6.96923">
        <ele>1698</ele>
        <time>2011-02-05T10:09:17Z</time>
      </trkpt>
      <trkpt lat="44.08328" lon="6.96928">
        <ele>1698</ele>
        <time>2011-02-05T10:09:26Z</time>
      </trkpt>
      <trkpt lat="44.08325" lon="6.96932">
        <ele>1698</ele>
        <time>2011-02-05T10:09:34Z</time>
      </trkpt>
      <trkpt lat="44.08322" lon="6.96938">
        <ele>1701</ele>
        <time>2011-02-05T10:10:57Z</time>
      </trkpt>
      <trkpt lat="44.08319" lon="6.96943">
        <ele>1701</ele>
        <time>2011-02-05T10:11:02Z</time>
      </trkpt>
      <trkpt lat="44.08315" lon="6.96946">
        <ele>1703</ele>
        <time>2011-02-05T10:11:07Z</time>
      </trkpt>
      <trkpt lat="44.08312" lon="6.96951">
        <ele>1703</ele>
        <time>2011-02-05T10:11:14Z</time>
      </trkpt>
      <trkpt lat="44.08306" lon="6.96952">
        <ele>1702</ele>
        <time>2011-02-05T10:11:20Z</time>
      </trkpt>
      <trkpt lat="44.08302" lon="6.96952">
        <ele>1702</ele>
        <time>2011-02-05T10:11:27Z</time>
      </trkpt>
      <trkpt lat="44.08299" lon="6.96957">
        <ele>1702</ele>
        <time>2011-02-05T10:11:37Z</time>
      </trkpt>
      <trkpt lat="44.08297" lon="6.96963">
        <ele>1702</ele>
        <time>2011-02-05T10:12:40Z</time>
      </trkpt>
      <trkpt lat="44.08294" lon="6.96969">
        <ele>1702</ele>
        <time>2011-02-05T10:12:50Z</time>
      </trkpt>
      <trkpt lat="44.0829" lon="6.96973">
        <ele>1704</ele>
        <time>2011-02-05T10:13:04Z</time>
      </trkpt>
      <trkpt lat="44.08286" lon="6.96977">
        <ele>1705</ele>
        <time>2011-02-05T10:13:11Z</time>
      </trkpt>
      <trkpt lat="44.08282" lon="6.96981">
        <ele>1705</ele>
        <time>2011-02-05T10:13:21Z</time>
      </trkpt>
      <trkpt lat="44.08279" lon="6.96986">
        <ele>1705</ele>
        <time>2011-02-05T10:13:30Z</time>
      </trkpt>
      <trkpt lat="44.08274" lon="6.96989">
        <ele>1706</ele>
        <time>2011-02-05T10:13:41Z</time>
      </trkpt>
      <trkpt lat="44.0827" lon="6.96991">
        <ele>1708</ele>
        <time>2011-02-05T10:14:04Z</time>
      </trkpt>
      <trkpt lat="44.08265" lon="6.96994">
        <ele>1710</ele>
        <time>2011-02-05T10:14:11Z</time>
      </trkpt>
      <trkpt lat="44.08261" lon="6.96996">
        <ele>1711</ele>
        <time>2011-02-05T10:14:19Z</time>
      </trkpt>
      <trkpt lat="44.08258" lon="6.97">
        <ele>1713</ele>
        <time>2011-02-05T10:14:28Z</time>
      </trkpt>
      <trkpt lat="44.08253" lon="6.97003">
        <ele>1715</ele>
        <time>2011-02-05T10:14:37Z</time>
      </trkpt>
      <trkpt lat="44.08249" lon="6.97004">
        <ele>1716</ele>
        <time>2011-02-05T10:15:01Z</time>
      </trkpt>
      <trkpt lat="44.08246" lon="6.97009">
        <ele>1716</ele>
        <time>2011-02-05T10:15:19Z</time>
      </trkpt>
      <trkpt lat="44.08244" lon="6.97016">
        <ele>1715</ele>
        <time>2011-02-05T10:15:25Z</time>
      </trkpt>
      <trkpt lat="44.08242" lon="6.97022">
        <ele>1716</ele>
        <time>2011-02-05T10:15:32Z</time>
      </trkpt>
      <trkpt lat="44.0824" lon="6.97028">
        <ele>1719</ele>
        <time>2011-02-05T10:15:41Z</time>
      </trkpt>
      <trkpt lat="44.08241" lon="6.97034">
        <ele>1718</ele>
        <time>2011-02-05T10:16:13Z</time>
      </trkpt>
      <trkpt lat="44.08242" lon="6.97041">
        <ele>1719</ele>
        <time>2011-02-05T10:16:21Z</time>
      </trkpt>
      <trkpt lat="44.08242" lon="6.97046">
        <ele>1717</ele>
        <time>2011-02-05T10:17:30Z</time>
      </trkpt>
      <trkpt lat="44.08238" lon="6.9705">
        <ele>1719</ele>
        <time>2011-02-05T10:23:28Z</time>
      </trkpt>
      <trkpt lat="44.08234" lon="6.97055">
        <ele>1717</ele>
        <time>2011-02-05T10:23:33Z</time>
      </trkpt>
      <trkpt lat="44.0823" lon="6.97059">
        <ele>1718</ele>
        <time>2011-02-05T10:23:38Z</time>
      </trkpt>
      <trkpt lat="44.08226" lon="6.97061">
        <ele>1720</ele>
        <time>2011-02-05T10:23:52Z</time>
      </trkpt>
      <trkpt lat="44.08221" lon="6.97063">
        <ele>1720</ele>
        <time>2011-02-05T10:24:04Z</time>
      </trkpt>
      <trkpt lat="44.08219" lon="6.97068">
        <ele>1720</ele>
        <time>2011-02-05T10:24:08Z</time>
      </trkpt>
      <trkpt lat="44.08213" lon="6.97069">
        <ele>1719</ele>
        <time>2011-02-05T10:24:14Z</time>
      </trkpt>
      <trkpt lat="44.08209" lon="6.97069">
        <ele>1719</ele>
        <time>2011-02-05T10:24:18Z</time>
      </trkpt>
      <trkpt lat="44.08203" lon="6.9707">
        <ele>1718</ele>
        <time>2011-02-05T10:24:25Z</time>
      </trkpt>
      <trkpt lat="44.08198" lon="6.97072">
        <ele>1716</ele>
        <time>2011-02-05T10:24:32Z</time>
      </trkpt>
      <trkpt lat="44.08193" lon="6.97073">
        <ele>1714</ele>
        <time>2011-02-05T10:24:38Z</time>
      </trkpt>
      <trkpt lat="44.08188" lon="6.97075">
        <ele>1712</ele>
        <time>2011-02-05T10:24:44Z</time>
      </trkpt>
      <trkpt lat="44.08183" lon="6.97074">
        <ele>1711</ele>
        <time>2011-02-05T10:24:49Z</time>
      </trkpt>
      <trkpt lat="44.08178" lon="6.97072">
        <ele>1711</ele>
        <time>2011-02-05T10:24:54Z</time>
      </trkpt>
      <trkpt lat="44.08173" lon="6.97071">
        <ele>1710</ele>
        <time>2011-02-05T10:24:59Z</time>
      </trkpt>
      <trkpt lat="44.08168" lon="6.9707">
        <ele>1712</ele>
        <time>2011-02-05T10:25:03Z</time>
      </trkpt>
      <trkpt lat="44.08163" lon="6.97067">
        <ele>1711</ele>
        <time>2011-02-05T10:25:08Z</time>
      </trkpt>
      <trkpt lat="44.08158" lon="6.97068">
        <ele>1712</ele>
        <time>2011-02-05T10:25:14Z</time>
      </trkpt>
      <trkpt lat="44.08154" lon="6.97066">
        <ele>1712</ele>
        <time>2011-02-05T10:25:19Z</time>
      </trkpt>
      <trkpt lat="44.08149" lon="6.97064">
        <ele>1713</ele>
        <time>2011-02-05T10:25:24Z</time>
      </trkpt>
      <trkpt lat="44.08145" lon="6.97061">
        <ele>1712</ele>
        <time>2011-02-05T10:25:30Z</time>
      </trkpt>
      <trkpt lat="44.0814" lon="6.97058">
        <ele>1711</ele>
        <time>2011-02-05T10:25:49Z</time>
      </trkpt>
      <trkpt lat="44.08135" lon="6.97058">
        <ele>1710</ele>
        <time>2011-02-05T10:25:54Z</time>
      </trkpt>
      <trkpt lat="44.0813" lon="6.97056">
        <ele>1710</ele>
        <time>2011-02-05T10:26:00Z</time>
      </trkpt>
      <trkpt lat="44.08126" lon="6.97058">
        <ele>1707</ele>
        <time>2011-02-05T10:27:33Z</time>
      </trkpt>
      <trkpt lat="44.08121" lon="6.97056">
        <ele>1707</ele>
        <time>2011-02-05T10:27:37Z</time>
      </trkpt>
      <trkpt lat="44.08116" lon="6.97057">
        <ele>1707</ele>
        <time>2011-02-05T10:27:43Z</time>
      </trkpt>
      <trkpt lat="44.08111" lon="6.97057">
        <ele>1707</ele>
        <time>2011-02-05T10:27:48Z</time>
      </trkpt>
      <trkpt lat="44.08106" lon="6.97056">
        <ele>1707</ele>
        <time>2011-02-05T10:27:52Z</time>
      </trkpt>
      <trkpt lat="44.08101" lon="6.97053">
        <ele>1706</ele>
        <time>2011-02-05T10:27:57Z</time>
      </trkpt>
      <trkpt lat="44.08096" lon="6.97051">
        <ele>1706</ele>
        <time>2011-02-05T10:28:01Z</time>
      </trkpt>
      <trkpt lat="44.08091" lon="6.97049">
        <ele>1706</ele>
        <time>2011-02-05T10:28:05Z</time>
      </trkpt>
      <trkpt lat="44.08086" lon="6.97049">
        <ele>1707</ele>
        <time>2011-02-05T10:28:11Z</time>
      </trkpt>
      <trkpt lat="44.08081" lon="6.97045">
        <ele>1706</ele>
        <time>2011-02-05T10:28:16Z</time>
      </trkpt>
      <trkpt lat="44.08077" lon="6.97043">
        <ele>1703</ele>
        <time>2011-02-05T10:28:22Z</time>
      </trkpt>
      <trkpt lat="44.08073" lon="6.97037">
        <ele>1704</ele>
        <time>2011-02-05T10:28:28Z</time>
      </trkpt>
      <trkpt lat="44.08068" lon="6.97033">
        <ele>1705</ele>
        <time>2011-02-05T10:28:40Z</time>
      </trkpt>
      <trkpt lat="44.08064" lon="6.9703">
        <ele>1705</ele>
        <time>2011-02-05T10:28:45Z</time>
      </trkpt>
      <trkpt lat="44.08061" lon="6.97026">
        <ele>1705</ele>
        <time>2011-02-05T10:28:48Z</time>
      </trkpt>
      <trkpt lat="44.08059" lon="6.97018">
        <ele>1707</ele>
        <time>2011-02-05T10:28:51Z</time>
      </trkpt>
      <trkpt lat="44.08054" lon="6.97016">
        <ele>1707</ele>
        <time>2011-02-05T10:28:55Z</time>
      </trkpt>
      <trkpt lat="44.08049" lon="6.97015">
        <ele>1706</ele>
        <time>2011-02-05T10:29:00Z</time>
      </trkpt>
      <trkpt lat="44.08045" lon="6.97011">
        <ele>1706</ele>
        <time>2011-02-05T10:29:06Z</time>
      </trkpt>
      <trkpt lat="44.0804" lon="6.97009">
        <ele>1705</ele>
        <time>2011-02-05T10:29:11Z</time>
      </trkpt>
      <trkpt lat="44.08035" lon="6.97008">
        <ele>1704</ele>
        <time>2011-02-05T10:29:16Z</time>
      </trkpt>
      <trkpt lat="44.08029" lon="6.97007">
        <ele>1704</ele>
        <time>2011-02-05T10:29:22Z</time>
      </trkpt>
      <trkpt lat="44.08024" lon="6.97005">
        <ele>1704</ele>
        <time>2011-02-05T10:29:27Z</time>
      </trkpt>
      <trkpt lat="44.0802" lon="6.97001">
        <ele>1704</ele>
        <time>2011-02-05T10:29:30Z</time>
      </trkpt>
      <trkpt lat="44.08015" lon="6.96999">
        <ele>1704</ele>
        <time>2011-02-05T10:29:35Z</time>
      </trkpt>
      <trkpt lat="44.0801" lon="6.96995">
        <ele>1704</ele>
        <time>2011-02-05T10:29:40Z</time>
      </trkpt>
      <trkpt lat="44.08006" lon="6.96995">
        <ele>1704</ele>
        <time>2011-02-05T10:29:45Z</time>
      </trkpt>
      <trkpt lat="44.08001" lon="6.9699">
        <ele>1704</ele>
        <time>2011-02-05T10:29:49Z</time>
      </trkpt>
      <trkpt lat="44.07996" lon="6.96988">
        <ele>1702</ele>
        <time>2011-02-05T10:29:56Z</time>
      </trkpt>
      <trkpt lat="44.07992" lon="6.96984">
        <ele>1703</ele>
        <time>2011-02-05T10:30:01Z</time>
      </trkpt>
      <trkpt lat="44.07988" lon="6.9698">
        <ele>1703</ele>
        <time>2011-02-05T10:30:08Z</time>
      </trkpt>
      <trkpt lat="44.07985" lon="6.96974">
        <ele>1704</ele>
        <time>2011-02-05T10:30:55Z</time>
      </trkpt>
      <trkpt lat="44.0798" lon="6.96972">
        <ele>1705</ele>
        <time>2011-02-05T10:31:02Z</time>
      </trkpt>
      <trkpt lat="44.07976" lon="6.9697">
        <ele>1705</ele>
        <time>2011-02-05T10:31:08Z</time>
      </trkpt>
      <trkpt lat="44.07972" lon="6.96966">
        <ele>1705</ele>
        <time>2011-02-05T10:31:13Z</time>
      </trkpt>
      <trkpt lat="44.07968" lon="6.96964">
        <ele>1706</ele>
        <time>2011-02-05T10:31:20Z</time>
      </trkpt>
      <trkpt lat="44.07964" lon="6.9696">
        <ele>1709</ele>
        <time>2011-02-05T10:31:26Z</time>
      </trkpt>
      <trkpt lat="44.0796" lon="6.96957">
        <ele>1709</ele>
        <time>2011-02-05T10:31:32Z</time>
      </trkpt>
      <trkpt lat="44.07956" lon="6.96954">
        <ele>1711</ele>
        <time>2011-02-05T10:31:39Z</time>
      </trkpt>
      <trkpt lat="44.07952" lon="6.96949">
        <ele>1712</ele>
        <time>2011-02-05T10:31:45Z</time>
      </trkpt>
      <trkpt lat="44.07948" lon="6.96946">
        <ele>1712</ele>
        <time>2011-02-05T10:31:52Z</time>
      </trkpt>
      <trkpt lat="44.07944" lon="6.96943">
        <ele>1711</ele>
        <time>2011-02-05T10:31:59Z</time>
      </trkpt>
      <trkpt lat="44.07939" lon="6.96939">
        <ele>1712</ele>
        <time>2011-02-05T10:32:07Z</time>
      </trkpt>
      <trkpt lat="44.07935" lon="6.96937">
        <ele>1712</ele>
        <time>2011-02-05T10:32:13Z</time>
      </trkpt>
      <trkpt lat="44.0793" lon="6.96938">
        <ele>1710</ele>
        <time>2011-02-05T10:32:21Z</time>
      </trkpt>
      <trkpt lat="44.07926" lon="6.96934">
        <ele>1712</ele>
        <time>2011-02-05T10:32:28Z</time>
      </trkpt>
      <trkpt lat="44.07922" lon="6.96932">
        <ele>1712</ele>
        <time>2011-02-05T10:32:35Z</time>
      </trkpt>
      <trkpt lat="44.07918" lon="6.96928">
        <ele>1713</ele>
        <time>2011-02-05T10:32:40Z</time>
      </trkpt>
      <trkpt lat="44.07915" lon="6.96923">
        <ele>1717</ele>
        <time>2011-02-05T10:32:46Z</time>
      </trkpt>
      <trkpt lat="44.0791" lon="6.96922">
        <ele>1718</ele>
        <time>2011-02-05T10:32:53Z</time>
      </trkpt>
      <trkpt lat="44.07905" lon="6.9692">
        <ele>1719</ele>
        <time>2011-02-05T10:32:59Z</time>
      </trkpt>
      <trkpt lat="44.079" lon="6.96918">
        <ele>1721</ele>
        <time>2011-02-05T10:33:05Z</time>
      </trkpt>
      <trkpt lat="44.07896" lon="6.96916">
        <ele>1720</ele>
        <time>2011-02-05T10:33:11Z</time>
      </trkpt>
      <trkpt lat="44.07891" lon="6.96916">
        <ele>1722</ele>
        <time>2011-02-05T10:33:17Z</time>
      </trkpt>
      <trkpt lat="44.07886" lon="6.96915">
        <ele>1722</ele>
        <time>2011-02-05T10:33:23Z</time>
      </trkpt>
      <trkpt lat="44.07881" lon="6.96915">
        <ele>1723</ele>
        <time>2011-02-05T10:33:30Z</time>
      </trkpt>
      <trkpt lat="44.07876" lon="6.96917">
        <ele>1724</ele>
        <time>2011-02-05T10:33:36Z</time>
      </trkpt>
      <trkpt lat="44.07871" lon="6.96917">
        <ele>1724</ele>
        <time>2011-02-05T10:33:41Z</time>
      </trkpt>
      <trkpt lat="44.07866" lon="6.96919">
        <ele>1725</ele>
        <time>2011-02-05T10:33:46Z</time>
      </trkpt>
      <trkpt lat="44.07862" lon="6.96919">
        <ele>1725</ele>
        <time>2011-02-05T10:33:51Z</time>
      </trkpt>
      <trkpt lat="44.07857" lon="6.96921">
        <ele>1726</ele>
        <time>2011-02-05T10:34:00Z</time>
      </trkpt>
      <trkpt lat="44.07852" lon="6.96922">
        <ele>1727</ele>
        <time>2011-02-05T10:34:07Z</time>
      </trkpt>
      <trkpt lat="44.07847" lon="6.96924">
        <ele>1727</ele>
        <time>2011-02-05T10:34:13Z</time>
      </trkpt>
      <trkpt lat="44.07843" lon="6.96926">
        <ele>1727</ele>
        <time>2011-02-05T10:34:19Z</time>
      </trkpt>
      <trkpt lat="44.07839" lon="6.96929">
        <ele>1727</ele>
        <time>2011-02-05T10:34:25Z</time>
      </trkpt>
      <trkpt lat="44.07833" lon="6.96931">
        <ele>1727</ele>
        <time>2011-02-05T10:34:31Z</time>
      </trkpt>
      <trkpt lat="44.07829" lon="6.96932">
        <ele>1728</ele>
        <time>2011-02-05T10:34:38Z</time>
      </trkpt>
      <trkpt lat="44.07823" lon="6.96933">
        <ele>1729</ele>
        <time>2011-02-05T10:34:44Z</time>
      </trkpt>
      <trkpt lat="44.07818" lon="6.96935">
        <ele>1729</ele>
        <time>2011-02-05T10:34:49Z</time>
      </trkpt>
      <trkpt lat="44.07814" lon="6.96937">
        <ele>1731</ele>
        <time>2011-02-05T10:34:55Z</time>
      </trkpt>
      <trkpt lat="44.07809" lon="6.9694">
        <ele>1730</ele>
        <time>2011-02-05T10:35:02Z</time>
      </trkpt>
      <trkpt lat="44.07805" lon="6.96944">
        <ele>1730</ele>
        <time>2011-02-05T10:35:07Z</time>
      </trkpt>
      <trkpt lat="44.078" lon="6.96946">
        <ele>1731</ele>
        <time>2011-02-05T10:35:12Z</time>
      </trkpt>
      <trkpt lat="44.07796" lon="6.96949">
        <ele>1731</ele>
        <time>2011-02-05T10:35:19Z</time>
      </trkpt>
      <trkpt lat="44.07791" lon="6.96951">
        <ele>1732</ele>
        <time>2011-02-05T10:35:27Z</time>
      </trkpt>
      <trkpt lat="44.07786" lon="6.96951">
        <ele>1734</ele>
        <time>2011-02-05T10:35:35Z</time>
      </trkpt>
      <trkpt lat="44.07781" lon="6.96953">
        <ele>1736</ele>
        <time>2011-02-05T10:35:45Z</time>
      </trkpt>
      <trkpt lat="44.07778" lon="6.96958">
        <ele>1736</ele>
        <time>2011-02-05T10:36:08Z</time>
      </trkpt>
      <trkpt lat="44.07773" lon="6.9696">
        <ele>1737</ele>
        <time>2011-02-05T10:36:15Z</time>
      </trkpt>
      <trkpt lat="44.07768" lon="6.96961">
        <ele>1736</ele>
        <time>2011-02-05T10:36:23Z</time>
      </trkpt>
      <trkpt lat="44.07763" lon="6.96959">
        <ele>1737</ele>
        <time>2011-02-05T10:36:30Z</time>
      </trkpt>
      <trkpt lat="44.07758" lon="6.96956">
        <ele>1738</ele>
        <time>2011-02-05T10:36:36Z</time>
      </trkpt>
      <trkpt lat="44.07754" lon="6.96953">
        <ele>1739</ele>
        <time>2011-02-05T10:36:47Z</time>
      </trkpt>
      <trkpt lat="44.0775" lon="6.96949">
        <ele>1740</ele>
        <time>2011-02-05T10:36:53Z</time>
      </trkpt>
      <trkpt lat="44.07746" lon="6.96944">
        <ele>1741</ele>
        <time>2011-02-05T10:36:59Z</time>
      </trkpt>
      <trkpt lat="44.07741" lon="6.96944">
        <ele>1743</ele>
        <time>2011-02-05T10:37:07Z</time>
      </trkpt>
      <trkpt lat="44.07735" lon="6.96942">
        <ele>1743</ele>
        <time>2011-02-05T10:37:13Z</time>
      </trkpt>
      <trkpt lat="44.07732" lon="6.96938">
        <ele>1744</ele>
        <time>2011-02-05T10:40:24Z</time>
      </trkpt>
      <trkpt lat="44.07727" lon="6.96936">
        <ele>1745</ele>
        <time>2011-02-05T10:40:33Z</time>
      </trkpt>
      <trkpt lat="44.07722" lon="6.96934">
        <ele>1745</ele>
        <time>2011-02-05T10:40:37Z</time>
      </trkpt>
      <trkpt lat="44.07718" lon="6.9693">
        <ele>1745</ele>
        <time>2011-02-05T10:40:43Z</time>
      </trkpt>
      <trkpt lat="44.07714" lon="6.96927">
        <ele>1747</ele>
        <time>2011-02-05T10:40:49Z</time>
      </trkpt>
      <trkpt lat="44.07709" lon="6.96924">
        <ele>1746</ele>
        <time>2011-02-05T10:41:11Z</time>
      </trkpt>
      <trkpt lat="44.07704" lon="6.96924">
        <ele>1746</ele>
        <time>2011-02-05T10:41:20Z</time>
      </trkpt>
      <trkpt lat="44.07699" lon="6.96923">
        <ele>1749</ele>
        <time>2011-02-05T10:41:42Z</time>
      </trkpt>
      <trkpt lat="44.07694" lon="6.96923">
        <ele>1748</ele>
        <time>2011-02-05T10:41:54Z</time>
      </trkpt>
      <trkpt lat="44.07689" lon="6.96924">
        <ele>1750</ele>
        <time>2011-02-05T10:42:00Z</time>
      </trkpt>
      <trkpt lat="44.07684" lon="6.96924">
        <ele>1752</ele>
        <time>2011-02-05T10:42:08Z</time>
      </trkpt>
      <trkpt lat="44.07679" lon="6.96918">
        <ele>1758</ele>
        <time>2011-02-05T10:43:04Z</time>
      </trkpt>
      <trkpt lat="44.07674" lon="6.96922">
        <ele>1755</ele>
        <time>2011-02-05T10:43:12Z</time>
      </trkpt>
      <trkpt lat="44.0767" lon="6.96921">
        <ele>1754</ele>
        <time>2011-02-05T10:43:18Z</time>
      </trkpt>
      <trkpt lat="44.07665" lon="6.96924">
        <ele>1754</ele>
        <time>2011-02-05T10:43:24Z</time>
      </trkpt>
      <trkpt lat="44.0766" lon="6.96926">
        <ele>1754</ele>
        <time>2011-02-05T10:43:28Z</time>
      </trkpt>
      <trkpt lat="44.07655" lon="6.96926">
        <ele>1754</ele>
        <time>2011-02-05T10:43:33Z</time>
      </trkpt>
      <trkpt lat="44.0765" lon="6.96928">
        <ele>1754</ele>
        <time>2011-02-05T10:43:40Z</time>
      </trkpt>
      <trkpt lat="44.07646" lon="6.96932">
        <ele>1754</ele>
        <time>2011-02-05T10:45:15Z</time>
      </trkpt>
      <trkpt lat="44.07642" lon="6.96936">
        <ele>1752</ele>
        <time>2011-02-05T10:45:21Z</time>
      </trkpt>
      <trkpt lat="44.07637" lon="6.96938">
        <ele>1752</ele>
        <time>2011-02-05T10:45:26Z</time>
      </trkpt>
      <trkpt lat="44.07632" lon="6.96939">
        <ele>1752</ele>
        <time>2011-02-05T10:45:31Z</time>
      </trkpt>
      <trkpt lat="44.07628" lon="6.96941">
        <ele>1753</ele>
        <time>2011-02-05T10:45:36Z</time>
      </trkpt>
      <trkpt lat="44.07623" lon="6.96944">
        <ele>1752</ele>
        <time>2011-02-05T10:45:42Z</time>
      </trkpt>
      <trkpt lat="44.07619" lon="6.96947">
        <ele>1753</ele>
        <time>2011-02-05T10:45:47Z</time>
      </trkpt>
      <trkpt lat="44.07614" lon="6.9695">
        <ele>1751</ele>
        <time>2011-02-05T10:45:55Z</time>
      </trkpt>
      <trkpt lat="44.07609" lon="6.9695">
        <ele>1751</ele>
        <time>2011-02-05T10:46:00Z</time>
      </trkpt>
      <trkpt lat="44.07604" lon="6.96953">
        <ele>1751</ele>
        <time>2011-02-05T10:46:06Z</time>
      </trkpt>
      <trkpt lat="44.076" lon="6.96957">
        <ele>1752</ele>
        <time>2011-02-05T10:46:12Z</time>
      </trkpt>
      <trkpt lat="44.07596" lon="6.96961">
        <ele>1752</ele>
        <time>2011-02-05T10:46:19Z</time>
      </trkpt>
      <trkpt lat="44.07592" lon="6.96966">
        <ele>1753</ele>
        <time>2011-02-05T10:46:25Z</time>
      </trkpt>
      <trkpt lat="44.07588" lon="6.96969">
        <ele>1754</ele>
        <time>2011-02-05T10:46:32Z</time>
      </trkpt>
      <trkpt lat="44.07583" lon="6.96972">
        <ele>1754</ele>
        <time>2011-02-05T10:46:38Z</time>
      </trkpt>
      <trkpt lat="44.07579" lon="6.96975">
        <ele>1755</ele>
        <time>2011-02-05T10:46:46Z</time>
      </trkpt>
      <trkpt lat="44.07575" lon="6.96979">
        <ele>1755</ele>
        <time>2011-02-05T10:46:53Z</time>
      </trkpt>
      <trkpt lat="44.07571" lon="6.96982">
        <ele>1755</ele>
        <time>2011-02-05T10:46:59Z</time>
      </trkpt>
      <trkpt lat="44.07568" lon="6.96986">
        <ele>1756</ele>
        <time>2011-02-05T10:47:07Z</time>
      </trkpt>
      <trkpt lat="44.07564" lon="6.9699">
        <ele>1756</ele>
        <time>2011-02-05T10:47:13Z</time>
      </trkpt>
      <trkpt lat="44.07559" lon="6.96993">
        <ele>1756</ele>
        <time>2011-02-05T10:47:18Z</time>
      </trkpt>
      <trkpt lat="44.07555" lon="6.96995">
        <ele>1758</ele>
        <time>2011-02-05T10:47:26Z</time>
      </trkpt>
      <trkpt lat="44.07551" lon="6.97">
        <ele>1758</ele>
        <time>2011-02-05T10:47:34Z</time>
      </trkpt>
      <trkpt lat="44.07547" lon="6.97005">
        <ele>1758</ele>
        <time>2011-02-05T10:47:41Z</time>
      </trkpt>
      <trkpt lat="44.07544" lon="6.97009">
        <ele>1758</ele>
        <time>2011-02-05T10:47:48Z</time>
      </trkpt>
      <trkpt lat="44.07541" lon="6.97015">
        <ele>1758</ele>
        <time>2011-02-05T10:47:55Z</time>
      </trkpt>
      <trkpt lat="44.07537" lon="6.9702">
        <ele>1758</ele>
        <time>2011-02-05T10:48:01Z</time>
      </trkpt>
      <trkpt lat="44.07534" lon="6.97026">
        <ele>1758</ele>
        <time>2011-02-05T10:48:07Z</time>
      </trkpt>
      <trkpt lat="44.07531" lon="6.97032">
        <ele>1759</ele>
        <time>2011-02-05T10:48:13Z</time>
      </trkpt>
      <trkpt lat="44.0753" lon="6.97038">
        <ele>1759</ele>
        <time>2011-02-05T10:48:18Z</time>
      </trkpt>
      <trkpt lat="44.07528" lon="6.97044">
        <ele>1760</ele>
        <time>2011-02-05T10:48:25Z</time>
      </trkpt>
      <trkpt lat="44.07525" lon="6.97049">
        <ele>1759</ele>
        <time>2011-02-05T10:48:31Z</time>
      </trkpt>
      <trkpt lat="44.07522" lon="6.97055">
        <ele>1761</ele>
        <time>2011-02-05T10:49:13Z</time>
      </trkpt>
      <trkpt lat="44.07518" lon="6.97058">
        <ele>1761</ele>
        <time>2011-02-05T10:49:18Z</time>
      </trkpt>
      <trkpt lat="44.07515" lon="6.97062">
        <ele>1761</ele>
        <time>2011-02-05T10:49:24Z</time>
      </trkpt>
      <trkpt lat="44.07511" lon="6.97066">
        <ele>1761</ele>
        <time>2011-02-05T10:49:29Z</time>
      </trkpt>
      <trkpt lat="44.07507" lon="6.97071">
        <ele>1761</ele>
        <time>2011-02-05T10:49:34Z</time>
      </trkpt>
      <trkpt lat="44.07504" lon="6.97076">
        <ele>1762</ele>
        <time>2011-02-05T10:49:39Z</time>
      </trkpt>
      <trkpt lat="44.075" lon="6.97079">
        <ele>1761</ele>
        <time>2011-02-05T10:49:43Z</time>
      </trkpt>
      <trkpt lat="44.07497" lon="6.97085">
        <ele>1761</ele>
        <time>2011-02-05T10:49:48Z</time>
      </trkpt>
      <trkpt lat="44.07493" lon="6.97089">
        <ele>1762</ele>
        <time>2011-02-05T10:49:53Z</time>
      </trkpt>
      <trkpt lat="44.07489" lon="6.97094">
        <ele>1762</ele>
        <time>2011-02-05T10:49:58Z</time>
      </trkpt>
      <trkpt lat="44.07486" lon="6.971">
        <ele>1762</ele>
        <time>2011-02-05T10:50:03Z</time>
      </trkpt>
      <trkpt lat="44.07482" lon="6.97104">
        <ele>1762</ele>
        <time>2011-02-05T10:50:08Z</time>
      </trkpt>
      <trkpt lat="44.07479" lon="6.97108">
        <ele>1761</ele>
        <time>2011-02-05T10:50:13Z</time>
      </trkpt>
      <trkpt lat="44.07475" lon="6.97113">
        <ele>1761</ele>
        <time>2011-02-05T10:50:19Z</time>
      </trkpt>
      <trkpt lat="44.0747" lon="6.97118">
        <ele>1761</ele>
        <time>2011-02-05T10:50:25Z</time>
      </trkpt>
      <trkpt lat="44.07467" lon="6.97123">
        <ele>1761</ele>
        <time>2011-02-05T10:50:31Z</time>
      </trkpt>
      <trkpt lat="44.07463" lon="6.97126">
        <ele>1761</ele>
        <time>2011-02-05T10:50:35Z</time>
      </trkpt>
      <trkpt lat="44.07459" lon="6.9713">
        <ele>1763</ele>
        <time>2011-02-05T10:50:40Z</time>
      </trkpt>
      <trkpt lat="44.07455" lon="6.97135">
        <ele>1762</ele>
        <time>2011-02-05T10:50:46Z</time>
      </trkpt>
      <trkpt lat="44.07449" lon="6.97138">
        <ele>1762</ele>
        <time>2011-02-05T10:50:52Z</time>
      </trkpt>
      <trkpt lat="44.07444" lon="6.97139">
        <ele>1760</ele>
        <time>2011-02-05T10:50:56Z</time>
      </trkpt>
      <trkpt lat="44.07439" lon="6.97142">
        <ele>1760</ele>
        <time>2011-02-05T10:51:01Z</time>
      </trkpt>
      <trkpt lat="44.07435" lon="6.97146">
        <ele>1760</ele>
        <time>2011-02-05T10:51:06Z</time>
      </trkpt>
      <trkpt lat="44.07431" lon="6.9715">
        <ele>1760</ele>
        <time>2011-02-05T10:51:11Z</time>
      </trkpt>
      <trkpt lat="44.07426" lon="6.97153">
        <ele>1761</ele>
        <time>2011-02-05T10:51:16Z</time>
      </trkpt>
      <trkpt lat="44.07421" lon="6.97156">
        <ele>1761</ele>
        <time>2011-02-05T10:51:20Z</time>
      </trkpt>
      <trkpt lat="44.07417" lon="6.97161">
        <ele>1762</ele>
        <time>2011-02-05T10:51:27Z</time>
      </trkpt>
      <trkpt lat="44.07414" lon="6.97167">
        <ele>1762</ele>
        <time>2011-02-05T10:51:32Z</time>
      </trkpt>
      <trkpt lat="44.07409" lon="6.97169">
        <ele>1760</ele>
        <time>2011-02-05T10:51:37Z</time>
      </trkpt>
      <trkpt lat="44.07404" lon="6.97173">
        <ele>1760</ele>
        <time>2011-02-05T10:51:42Z</time>
      </trkpt>
      <trkpt lat="44.07399" lon="6.97175">
        <ele>1759</ele>
        <time>2011-02-05T10:51:48Z</time>
      </trkpt>
      <trkpt lat="44.07395" lon="6.97178">
        <ele>1760</ele>
        <time>2011-02-05T10:51:53Z</time>
      </trkpt>
      <trkpt lat="44.07389" lon="6.9718">
        <ele>1760</ele>
        <time>2011-02-05T10:51:58Z</time>
      </trkpt>
      <trkpt lat="44.07385" lon="6.97182">
        <ele>1761</ele>
        <time>2011-02-05T10:52:02Z</time>
      </trkpt>
      <trkpt lat="44.07381" lon="6.97186">
        <ele>1762</ele>
        <time>2011-02-05T10:52:07Z</time>
      </trkpt>
      <trkpt lat="44.07376" lon="6.97187">
        <ele>1762</ele>
        <time>2011-02-05T10:52:11Z</time>
      </trkpt>
      <trkpt lat="44.07371" lon="6.97191">
        <ele>1762</ele>
        <time>2011-02-05T10:52:17Z</time>
      </trkpt>
      <trkpt lat="44.07367" lon="6.97195">
        <ele>1762</ele>
        <time>2011-02-05T10:52:22Z</time>
      </trkpt>
      <trkpt lat="44.07364" lon="6.972">
        <ele>1762</ele>
        <time>2011-02-05T10:52:27Z</time>
      </trkpt>
      <trkpt lat="44.0736" lon="6.97204">
        <ele>1761</ele>
        <time>2011-02-05T10:52:32Z</time>
      </trkpt>
      <trkpt lat="44.07355" lon="6.97209">
        <ele>1761</ele>
        <time>2011-02-05T10:52:37Z</time>
      </trkpt>
      <trkpt lat="44.07351" lon="6.97212">
        <ele>1762</ele>
        <time>2011-02-05T10:52:42Z</time>
      </trkpt>
      <trkpt lat="44.07347" lon="6.97214">
        <ele>1762</ele>
        <time>2011-02-05T10:52:46Z</time>
      </trkpt>
      <trkpt lat="44.07342" lon="6.97218">
        <ele>1762</ele>
        <time>2011-02-05T10:52:51Z</time>
      </trkpt>
      <trkpt lat="44.07338" lon="6.97221">
        <ele>1762</ele>
        <time>2011-02-05T10:52:56Z</time>
      </trkpt>
      <trkpt lat="44.07334" lon="6.97225">
        <ele>1763</ele>
        <time>2011-02-05T10:53:01Z</time>
      </trkpt>
      <trkpt lat="44.0733" lon="6.9723">
        <ele>1763</ele>
        <time>2011-02-05T10:53:06Z</time>
      </trkpt>
      <trkpt lat="44.07327" lon="6.97235">
        <ele>1765</ele>
        <time>2011-02-05T10:53:10Z</time>
      </trkpt>
      <trkpt lat="44.07324" lon="6.97241">
        <ele>1766</ele>
        <time>2011-02-05T10:53:15Z</time>
      </trkpt>
      <trkpt lat="44.07319" lon="6.97243">
        <ele>1766</ele>
        <time>2011-02-05T10:53:21Z</time>
      </trkpt>
      <trkpt lat="44.07315" lon="6.97246">
        <ele>1764</ele>
        <time>2011-02-05T10:53:36Z</time>
      </trkpt>
      <trkpt lat="44.0731" lon="6.97247">
        <ele>1763</ele>
        <time>2011-02-05T10:53:49Z</time>
      </trkpt>
      <trkpt lat="44.07306" lon="6.9725">
        <ele>1763</ele>
        <time>2011-02-05T10:53:55Z</time>
      </trkpt>
      <trkpt lat="44.07302" lon="6.97255">
        <ele>1761</ele>
        <time>2011-02-05T10:54:03Z</time>
      </trkpt>
      <trkpt lat="44.07298" lon="6.97259">
        <ele>1762</ele>
        <time>2011-02-05T10:54:09Z</time>
      </trkpt>
      <trkpt lat="44.07293" lon="6.97263">
        <ele>1762</ele>
        <time>2011-02-05T10:54:16Z</time>
      </trkpt>
      <trkpt lat="44.07289" lon="6.97267">
        <ele>1763</ele>
        <time>2011-02-05T10:54:22Z</time>
      </trkpt>
      <trkpt lat="44.07284" lon="6.9727">
        <ele>1763</ele>
        <time>2011-02-05T10:54:29Z</time>
      </trkpt>
      <trkpt lat="44.0728" lon="6.97274">
        <ele>1764</ele>
        <time>2011-02-05T10:54:35Z</time>
      </trkpt>
      <trkpt lat="44.07276" lon="6.97278">
        <ele>1765</ele>
        <time>2011-02-05T10:54:41Z</time>
      </trkpt>
      <trkpt lat="44.07272" lon="6.97282">
        <ele>1765</ele>
        <time>2011-02-05T10:54:47Z</time>
      </trkpt>
      <trkpt lat="44.07268" lon="6.97286">
        <ele>1767</ele>
        <time>2011-02-05T10:54:54Z</time>
      </trkpt>
      <trkpt lat="44.07264" lon="6.9729">
        <ele>1767</ele>
        <time>2011-02-05T10:54:59Z</time>
      </trkpt>
      <trkpt lat="44.07261" lon="6.97294">
        <ele>1767</ele>
        <time>2011-02-05T10:55:05Z</time>
      </trkpt>
      <trkpt lat="44.07257" lon="6.973">
        <ele>1768</ele>
        <time>2011-02-05T10:55:12Z</time>
      </trkpt>
      <trkpt lat="44.07253" lon="6.97303">
        <ele>1768</ele>
        <time>2011-02-05T10:55:21Z</time>
      </trkpt>
      <trkpt lat="44.07248" lon="6.97306">
        <ele>1768</ele>
        <time>2011-02-05T10:56:11Z</time>
      </trkpt>
      <trkpt lat="44.07245" lon="6.9731">
        <ele>1769</ele>
        <time>2011-02-05T10:56:16Z</time>
      </trkpt>
      <trkpt lat="44.0724" lon="6.97313">
        <ele>1772</ele>
        <time>2011-02-05T10:56:33Z</time>
      </trkpt>
      <trkpt lat="44.07237" lon="6.97318">
        <ele>1774</ele>
        <time>2011-02-05T10:56:40Z</time>
      </trkpt>
      <trkpt lat="44.07234" lon="6.97323">
        <ele>1777</ele>
        <time>2011-02-05T10:56:47Z</time>
      </trkpt>
      <trkpt lat="44.0723" lon="6.97328">
        <ele>1777</ele>
        <time>2011-02-05T10:56:52Z</time>
      </trkpt>
      <trkpt lat="44.07227" lon="6.97333">
        <ele>1778</ele>
        <time>2011-02-05T10:56:58Z</time>
      </trkpt>
      <trkpt lat="44.07225" lon="6.97339">
        <ele>1778</ele>
        <time>2011-02-05T10:57:04Z</time>
      </trkpt>
      <trkpt lat="44.07224" lon="6.97346">
        <ele>1777</ele>
        <time>2011-02-05T10:57:15Z</time>
      </trkpt>
      <trkpt lat="44.07225" lon="6.97352">
        <ele>1778</ele>
        <time>2011-02-05T10:57:30Z</time>
      </trkpt>
      <trkpt lat="44.07225" lon="6.97359">
        <ele>1778</ele>
        <time>2011-02-05T10:57:38Z</time>
      </trkpt>
      <trkpt lat="44.07226" lon="6.97365">
        <ele>1779</ele>
        <time>2011-02-05T10:57:44Z</time>
      </trkpt>
      <trkpt lat="44.07228" lon="6.97371">
        <ele>1781</ele>
        <time>2011-02-05T10:57:51Z</time>
      </trkpt>
      <trkpt lat="44.07229" lon="6.97378">
        <ele>1783</ele>
        <time>2011-02-05T10:57:56Z</time>
      </trkpt>
      <trkpt lat="44.07231" lon="6.97384">
        <ele>1784</ele>
        <time>2011-02-05T10:58:01Z</time>
      </trkpt>
      <trkpt lat="44.07232" lon="6.9739">
        <ele>1783</ele>
        <time>2011-02-05T10:58:06Z</time>
      </trkpt>
      <trkpt lat="44.07235" lon="6.97396">
        <ele>1783</ele>
        <time>2011-02-05T10:58:12Z</time>
      </trkpt>
      <trkpt lat="44.07237" lon="6.97403">
        <ele>1782</ele>
        <time>2011-02-05T10:58:18Z</time>
      </trkpt>
      <trkpt lat="44.07239" lon="6.97409">
        <ele>1783</ele>
        <time>2011-02-05T10:58:27Z</time>
      </trkpt>
      <trkpt lat="44.07239" lon="6.97417">
        <ele>1784</ele>
        <time>2011-02-05T10:58:33Z</time>
      </trkpt>
      <trkpt lat="44.07239" lon="6.97423">
        <ele>1784</ele>
        <time>2011-02-05T10:58:38Z</time>
      </trkpt>
      <trkpt lat="44.07239" lon="6.9743">
        <ele>1785</ele>
        <time>2011-02-05T10:58:44Z</time>
      </trkpt>
      <trkpt lat="44.07241" lon="6.97436">
        <ele>1788</ele>
        <time>2011-02-05T10:58:52Z</time>
      </trkpt>
      <trkpt lat="44.07242" lon="6.97443">
        <ele>1788</ele>
        <time>2011-02-05T10:59:01Z</time>
      </trkpt>
      <trkpt lat="44.07245" lon="6.97449">
        <ele>1789</ele>
        <time>2011-02-05T10:59:08Z</time>
      </trkpt>
      <trkpt lat="44.07246" lon="6.97455">
        <ele>1790</ele>
        <time>2011-02-05T10:59:15Z</time>
      </trkpt>
      <trkpt lat="44.07247" lon="6.97462">
        <ele>1787</ele>
        <time>2011-02-05T10:59:23Z</time>
      </trkpt>
      <trkpt lat="44.0725" lon="6.97468">
        <ele>1786</ele>
        <time>2011-02-05T10:59:29Z</time>
      </trkpt>
      <trkpt lat="44.07252" lon="6.97475">
        <ele>1783</ele>
        <time>2011-02-05T10:59:35Z</time>
      </trkpt>
      <trkpt lat="44.07253" lon="6.97481">
        <ele>1785</ele>
        <time>2011-02-05T10:59:40Z</time>
      </trkpt>
      <trkpt lat="44.07255" lon="6.97488">
        <ele>1787</ele>
        <time>2011-02-05T10:59:48Z</time>
      </trkpt>
      <trkpt lat="44.07256" lon="6.97494">
        <ele>1789</ele>
        <time>2011-02-05T10:59:54Z</time>
      </trkpt>
      <trkpt lat="44.07259" lon="6.97499">
        <ele>1788</ele>
        <time>2011-02-05T11:00:01Z</time>
      </trkpt>
      <trkpt lat="44.07261" lon="6.97505">
        <ele>1788</ele>
        <time>2011-02-05T11:00:06Z</time>
      </trkpt>
      <trkpt lat="44.07263" lon="6.97511">
        <ele>1787</ele>
        <time>2011-02-05T11:00:15Z</time>
      </trkpt>
      <trkpt lat="44.07264" lon="6.97518">
        <ele>1787</ele>
        <time>2011-02-05T11:00:21Z</time>
      </trkpt>
      <trkpt lat="44.07265" lon="6.97524">
        <ele>1788</ele>
        <time>2011-02-05T11:00:27Z</time>
      </trkpt>
      <trkpt lat="44.07268" lon="6.97529">
        <ele>1788</ele>
        <time>2011-02-05T11:00:36Z</time>
      </trkpt>
      <trkpt lat="44.07271" lon="6.97535">
        <ele>1789</ele>
        <time>2011-02-05T11:00:43Z</time>
      </trkpt>
      <trkpt lat="44.07272" lon="6.97542">
        <ele>1792</ele>
        <time>2011-02-05T11:00:49Z</time>
      </trkpt>
      <trkpt lat="44.07273" lon="6.97548">
        <ele>1793</ele>
        <time>2011-02-05T11:00:55Z</time>
      </trkpt>
      <trkpt lat="44.07271" lon="6.97555">
        <ele>1794</ele>
        <time>2011-02-05T11:01:01Z</time>
      </trkpt>
      <trkpt lat="44.07275" lon="6.97561">
        <ele>1794</ele>
        <time>2011-02-05T11:01:07Z</time>
      </trkpt>
      <trkpt lat="44.07277" lon="6.97566">
        <ele>1795</ele>
        <time>2011-02-05T11:01:13Z</time>
      </trkpt>
      <trkpt lat="44.07281" lon="6.97572">
        <ele>1796</ele>
        <time>2011-02-05T11:01:26Z</time>
      </trkpt>
      <trkpt lat="44.07283" lon="6.97578">
        <ele>1796</ele>
        <time>2011-02-05T11:02:05Z</time>
      </trkpt>
      <trkpt lat="44.07287" lon="6.9758">
        <ele>1796</ele>
        <time>2011-02-05T11:03:06Z</time>
      </trkpt>
    </trkseg>
  </trk>
</gpx>